الصفحة الرئيسية
METAR-TAF:

METAR-TAF

مطار :

Odessa-Schlemeyer Field

أوديسا, تكساس, الولايات المتحدة

دائرة عرض: 31-55-17N, خط طول: 102-23-30W, ارتفاع: 914 متر

مراقبة الطقس الحالي

تاريخ ووقت الإصدار 48 دقيقة قبل الساعة 00:53UTC
ريح 12 عقدة من الجنوب
درجة الحرارة 17°درجة مئوية
الرطوبة 82%
ضغط 1012 hPa
الرؤية: 12.9 كم
سماء صافية

METAR: KODO 210053Z AUTO 17012KT 8SM CLR 17/14 A2987 RMK AO2 SLP085 T01720139

زمن: 19:41 (01:41 UTC)


TAF: مفقودة

أرصاد الطقس والتوقعات من أكثر من 4000 مطار (تقارير الطقس للمطار METAR والتنبؤ بالطقس بالمطارTAF).

المحطات المتاحة هي النقط الصفراء والحمراء على الخريطة.

حرك المؤشر فوق النقطة لمعرفة اسم المحطة.

ثم انقر لمعرفة أرصاد وتوقعات الطقس.

لتغيير الخارطة: اضغط على الأزرار الخضراء مع رمز الصليب الأسود للتكبير. على الزر الأخضر مع شرطة للتصغير، أو على الأسهم الخضراء للخرائط المجاورة.


METAR-TAF: